createdAt,value
2016-05-24T00:00:07.498Z,0
2016-05-24T00:01:07.484Z,0
2016-05-24T00:02:08.269Z,0
2016-05-24T00:03:07.599Z,0
2016-05-24T00:04:07.602Z,0
2016-05-24T00:05:07.417Z,0
2016-05-24T00:06:07.561Z,0
2016-05-24T00:07:07.578Z,0
2016-05-24T00:08:07.534Z,0
2016-05-24T00:09:07.522Z,0
2016-05-24T00:10:07.493Z,0
2016-05-24T00:11:07.480Z,0
2016-05-24T00:12:07.483Z,0
2016-05-24T00:13:07.295Z,0
2016-05-24T00:14:07.441Z,0
2016-05-24T00:15:07.866Z,0
2016-05-24T00:16:07.256Z,0
2016-05-24T00:17:07.228Z,0
2016-05-24T00:18:07.372Z,0
2016-05-24T00:19:07.358Z,0
2016-05-24T00:20:07.755Z,0
2016-05-24T00:21:07.177Z,0
2016-05-24T00:22:07.008Z,0
2016-05-24T00:23:07.307Z,0
2016-05-24T00:24:07.294Z,0
2016-05-24T00:25:07.280Z,0
2016-05-24T00:26:07.252Z,0
2016-05-24T00:27:07.239Z,0
2016-05-24T00:28:07.227Z,0
2016-05-24T00:29:07.073Z,0
2016-05-24T00:30:07.576Z,0
2016-05-24T00:31:07.203Z,0
2016-05-24T00:32:07.160Z,0
2016-05-24T00:33:07.177Z,0
2016-05-24T00:34:06.837Z,0
2016-05-24T00:35:07.120Z,0
2016-05-24T00:36:06.967Z,0
2016-05-24T00:37:07.094Z,0
2016-05-24T00:38:07.097Z,0
2016-05-24T00:39:06.756Z,0
2016-05-24T00:40:06.931Z,0
2016-05-24T00:41:07.043Z,0
2016-05-24T00:42:07.045Z,0
2016-05-24T00:43:06.892Z,0
2016-05-24T00:44:06.847Z,0
2016-05-24T00:45:07.225Z,0
2016-05-24T00:46:06.994Z,0
2016-05-24T00:47:06.950Z,0
2016-05-24T00:48:06.952Z,0
2016-05-24T00:49:06.924Z,0
2016-05-24T00:50:06.739Z,0
2016-05-24T00:51:06.883Z,0
2016-05-24T00:52:06.916Z,0
2016-05-24T00:53:06.700Z,0
2016-05-24T00:54:06.843Z,0
2016-05-24T00:55:06.830Z,0
2016-05-24T00:56:06.833Z,0
2016-05-24T00:57:06.649Z,0
2016-05-24T00:58:06.776Z,0
2016-05-24T00:59:07.169Z,0
2016-05-24T01:00:06.640Z,0
2016-05-24T01:01:06.748Z,0
2016-05-24T01:02:06.748Z,0
2016-05-24T01:03:06.779Z,0
2016-05-24T01:04:06.779Z,0
2016-05-24T01:05:06.809Z,0
2016-05-24T01:06:06.818Z,0
2016-05-24T01:07:06.815Z,0
2016-05-24T01:08:06.811Z,0
2016-05-24T01:09:06.794Z,0
2016-05-24T01:10:06.635Z,0
2016-05-24T01:11:06.786Z,0
2016-05-24T01:12:06.776Z,0
2016-05-24T01:13:06.783Z,0
2016-05-24T01:14:06.586Z,0
2016-05-24T01:15:07.156Z,0
2016-05-24T01:16:06.271Z,0
2016-05-24T01:17:06.727Z,0
2016-05-24T01:18:06.403Z,0
2016-05-24T01:19:06.548Z,0
2016-05-24T01:20:06.676Z,0
2016-05-24T01:21:06.648Z,0
2016-05-24T01:22:06.340Z,0
2016-05-24T01:23:06.623Z,0
2016-05-24T01:24:06.627Z,0
2016-05-24T01:25:06.426Z,0
2016-05-24T01:26:06.430Z,0
2016-05-24T01:27:06.573Z,0
2016-05-24T01:28:06.577Z,0
2016-05-24T01:29:06.532Z,0
2016-05-24T01:30:06.567Z,0
2016-05-24T01:31:06.507Z,0
2016-05-24T01:32:06.354Z,0
2016-05-24T01:33:06.482Z,0
2016-05-24T01:34:06.469Z,0
2016-05-24T01:35:06.439Z,0
2016-05-24T01:36:06.442Z,0
2016-05-24T01:37:06.429Z,0
2016-05-24T01:38:06.402Z,0
2016-05-24T01:39:06.248Z,0
2016-05-24T01:40:06.375Z,0
2016-05-24T01:41:06.191Z,0
2016-05-24T01:42:06.349Z,0
2016-05-24T01:43:06.336Z,0
2016-05-24T01:44:06.151Z,0
2016-05-24T01:45:06.249Z,0
2016-05-24T01:46:06.282Z,0
2016-05-24T01:47:06.269Z,0
2016-05-24T01:48:06.115Z,0
2016-05-24T01:49:06.243Z,0
2016-05-24T01:50:06.230Z,0
2016-05-24T01:51:06.202Z,0
2016-05-24T01:52:06.032Z,0
2016-05-24T01:53:06.020Z,0
2016-05-24T01:54:06.178Z,0
2016-05-24T01:55:05.993Z,0
2016-05-24T01:56:06.137Z,0
2016-05-24T01:57:06.124Z,0
2016-05-24T01:58:06.095Z,0
2016-05-24T01:59:06.098Z,0
2016-05-24T02:00:05.648Z,0
2016-05-24T02:01:06.057Z,0
2016-05-24T02:02:06.044Z,0
2016-05-24T02:03:06.031Z,0
2016-05-24T02:04:06.049Z,0
2016-05-24T02:05:06.005Z,0
2016-05-24T02:06:06.007Z,0
2016-05-24T02:07:05.980Z,0
2016-05-24T02:08:05.951Z,0
2016-05-24T02:09:05.781Z,0
2016-05-24T02:10:05.768Z,0
2016-05-24T02:11:05.911Z,0
2016-05-24T02:12:05.899Z,0
2016-05-24T02:13:05.871Z,0
2016-05-24T02:14:05.858Z,0
2016-05-24T02:15:06.126Z,0
2016-05-24T02:16:05.832Z,0
2016-05-24T02:17:05.818Z,0
2016-05-24T02:18:05.805Z,0
2016-05-24T02:19:05.793Z,0
2016-05-24T02:20:05.795Z,0
2016-05-24T02:21:05.611Z,0
2016-05-24T02:22:05.738Z,0
2016-05-24T02:23:05.568Z,0
2016-05-24T02:24:05.712Z,0
2016-05-24T02:25:05.699Z,0
2016-05-24T02:26:05.531Z,0
2016-05-24T02:27:05.673Z,0
2016-05-24T02:28:05.645Z,0
2016-05-24T02:29:05.632Z,0
2016-05-24T02:30:05.995Z,0
2016-05-24T02:31:05.606Z,0
2016-05-24T02:32:05.593Z,0
2016-05-24T02:33:05.580Z,0
2016-05-24T02:34:05.567Z,0
2016-05-24T02:35:05.397Z,0
2016-05-24T02:36:05.542Z,0
2016-05-24T02:37:05.356Z,0
2016-05-24T02:38:05.500Z,0
2016-05-24T02:39:05.486Z,0
2016-05-24T02:40:05.474Z,0
2016-05-24T02:41:05.492Z,0
2016-05-24T02:42:05.433Z,0
2016-05-24T02:43:05.436Z,0
2016-05-24T02:44:05.407Z,0
2016-05-24T02:45:05.377Z,0
2016-05-24T02:46:05.443Z,0
2016-05-24T02:47:05.243Z,0
2016-05-24T02:48:05.105Z,0
2016-05-24T02:49:05.108Z,0
2016-05-24T02:50:05.376Z,0
2016-05-24T02:51:05.488Z,0
2016-05-24T02:52:05.193Z,0
2016-05-24T02:53:04.978Z,0
2016-05-24T02:54:05.012Z,0
2016-05-24T02:55:05.171Z,0
2016-05-24T02:56:05.236Z,0
2016-05-24T02:57:05.207Z,0
2016-05-24T02:58:05.038Z,0
2016-05-24T02:59:05.791Z,0
2016-05-24T03:00:05.434Z,0
2016-05-24T03:01:05.140Z,0
2016-05-24T03:02:05.142Z,0
2016-05-24T03:03:05.114Z,0
2016-05-24T03:04:05.133Z,0
2016-05-24T03:05:05.089Z,0
2016-05-24T03:06:05.075Z,0
2016-05-24T03:07:05.094Z,0
2016-05-24T03:08:04.909Z,0
2016-05-24T03:09:04.911Z,0
2016-05-24T03:10:05.024Z,0
2016-05-24T03:11:05.027Z,0
2016-05-24T03:12:04.966Z,0
2016-05-24T03:13:04.969Z,0
2016-05-24T03:14:04.799Z,0
2016-05-24T03:15:04.724Z,0
2016-05-24T03:16:04.758Z,0
2016-05-24T03:17:04.746Z,0
2016-05-24T03:18:04.889Z,0
2016-05-24T03:19:04.876Z,0
2016-05-24T03:20:04.862Z,0
2016-05-24T03:21:04.724Z,0
2016-05-24T03:22:04.681Z,0
2016-05-24T03:23:04.809Z,0
2016-05-24T03:24:04.640Z,0
2016-05-24T03:25:04.798Z,0
2016-05-24T03:26:04.770Z,0
2016-05-24T03:27:04.773Z,0
2016-05-24T03:28:04.759Z,0
2016-05-24T03:29:04.715Z,0
2016-05-24T03:30:04.749Z,0
2016-05-24T03:31:04.548Z,0
2016-05-24T03:32:04.692Z,0
2016-05-24T03:33:04.664Z,0
2016-05-24T03:34:04.494Z,0
2016-05-24T03:35:04.622Z,0
2016-05-24T03:36:04.312Z,0
2016-05-24T03:37:04.596Z,0
2016-05-24T03:38:04.584Z,0
2016-05-24T03:39:04.258Z,0
2016-05-24T03:40:04.417Z,0
2016-05-24T03:41:04.372Z,0
2016-05-24T03:42:04.531Z,0
2016-05-24T03:43:04.346Z,0
2016-05-24T03:44:04.037Z,0
2016-05-24T03:45:04.508Z,0
2016-05-24T03:46:04.292Z,0
2016-05-24T03:47:04.435Z,0
2016-05-24T03:48:04.438Z,0
2016-05-24T03:49:04.409Z,5
2016-05-24T03:50:03.928Z,0
2016-05-24T03:51:04.227Z,0
2016-05-24T03:52:04.387Z,0
2016-05-24T03:53:04.357Z,0
2016-05-24T03:54:04.393Z,0
2016-05-24T03:55:04.160Z,0
2016-05-24T03:56:04.304Z,0
2016-05-24T03:57:04.290Z,0
2016-05-24T03:58:04.278Z,0
2016-05-24T03:59:04.265Z,0
2016-05-24T04:00:04.392Z,0
2016-05-24T04:01:04.239Z,0
2016-05-24T04:02:04.070Z,0
2016-05-24T04:03:04.041Z,0
2016-05-24T04:04:04.028Z,0
2016-05-24T04:05:04.187Z,5
2016-05-24T04:06:04.003Z,5
2016-05-24T04:07:04.145Z,5
2016-05-24T04:08:03.961Z,5
2016-05-24T04:09:04.103Z,5
2016-05-24T04:10:04.091Z,5
2016-05-24T04:11:04.094Z,5
2016-05-24T04:12:03.909Z,5
2016-05-24T04:13:04.083Z,5
2016-05-24T04:14:04.024Z,5
2016-05-24T04:15:03.744Z,5
2016-05-24T04:16:03.997Z,5
2016-05-24T04:17:03.986Z,5
2016-05-24T04:18:03.816Z,5
2016-05-24T04:19:03.960Z,5
2016-05-24T04:20:03.930Z,5
2016-05-24T04:21:03.917Z,5
2016-05-24T04:22:03.905Z,5
2016-05-24T04:23:03.735Z,5
2016-05-24T04:24:03.879Z,10
2016-05-24T04:25:03.897Z,5
2016-05-24T04:26:03.884Z,5
2016-05-24T04:27:03.684Z,5
2016-05-24T04:28:03.670Z,5
2016-05-24T04:29:03.658Z,10
2016-05-24T04:30:04.707Z,10
2016-05-24T04:31:03.773Z,10
2016-05-24T04:32:03.744Z,10
2016-05-24T04:33:03.590Z,15
2016-05-24T04:34:03.718Z,15
2016-05-24T04:35:03.721Z,15
2016-05-24T04:36:03.536Z,15
2016-05-24T04:37:03.523Z,20
2016-05-24T04:38:03.525Z,15
2016-05-24T04:39:03.638Z,15
2016-05-24T04:40:03.625Z,15
2016-05-24T04:41:03.628Z,20
2016-05-24T04:42:03.599Z,15
2016-05-24T04:43:03.492Z,15
2016-05-24T04:44:03.244Z,20
2016-05-24T04:45:03.358Z,20
2016-05-24T04:46:03.563Z,20
2016-05-24T04:47:03.535Z,25
2016-05-24T04:48:03.505Z,25
2016-05-24T04:49:03.493Z,30
2016-05-24T04:50:03.479Z,25
2016-05-24T04:51:03.311Z,20
2016-05-24T04:52:03.455Z,15
2016-05-24T04:53:03.269Z,15
2016-05-24T04:54:03.256Z,15
2016-05-24T04:55:03.415Z,15
2016-05-24T04:56:03.246Z,10
2016-05-24T04:57:03.405Z,10
2016-05-24T04:58:03.377Z,10
2016-05-24T04:59:03.598Z,10
2016-05-24T05:00:03.365Z,10
2016-05-24T05:01:03.182Z,10
2016-05-24T05:02:03.309Z,10
2016-05-24T05:03:03.281Z,10
2016-05-24T05:04:03.143Z,10
2016-05-24T05:05:03.254Z,10
2016-05-24T05:06:03.226Z,10
2016-05-24T05:07:03.228Z,10
2016-05-24T05:08:03.231Z,10
2016-05-24T05:09:03.031Z,10
2016-05-24T05:10:03.018Z,10
2016-05-24T05:11:03.161Z,15
2016-05-24T05:12:03.133Z,20
2016-05-24T05:13:03.151Z,25
2016-05-24T05:14:03.108Z,25
2016-05-24T05:15:03.578Z,35
2016-05-24T05:16:03.097Z,45
2016-05-24T05:17:03.052Z,35
2016-05-24T05:18:03.055Z,30
2016-05-24T05:19:02.886Z,25
2016-05-24T05:20:02.874Z,25
2016-05-24T05:21:03.001Z,25
2016-05-24T05:22:02.988Z,25
2016-05-24T05:23:02.960Z,25
2016-05-24T05:24:02.947Z,25
2016-05-24T05:25:02.792Z,25
2016-05-24T05:26:02.921Z,25
2016-05-24T05:27:02.908Z,25
2016-05-24T05:28:02.895Z,25
2016-05-24T05:29:02.865Z,25
2016-05-24T05:30:02.259Z,25
2016-05-24T05:31:02.856Z,25
2016-05-24T05:32:02.827Z,30
2016-05-24T05:33:02.814Z,35
2016-05-24T05:34:02.802Z,40
2016-05-24T05:35:02.789Z,45
2016-05-24T05:36:02.775Z,45
2016-05-24T05:37:02.779Z,45
2016-05-24T05:38:02.750Z,50
2016-05-24T05:39:02.720Z,50
2016-05-24T05:40:02.583Z,70
2016-05-24T05:41:02.695Z,65
2016-05-24T05:42:02.433Z,55
2016-05-24T05:43:02.513Z,60
2016-05-24T05:44:02.500Z,60
2016-05-24T05:45:02.644Z,60
2016-05-24T05:46:02.646Z,45
2016-05-24T05:47:02.446Z,50
2016-05-24T05:48:02.604Z,45
2016-05-24T05:49:02.591Z,50
2016-05-24T05:50:02.564Z,45
2016-05-24T05:51:02.535Z,40
2016-05-24T05:52:02.366Z,35
2016-05-24T05:53:02.383Z,35
2016-05-24T05:54:02.527Z,35
2016-05-24T05:55:02.185Z,35
2016-05-24T05:56:02.485Z,40
2016-05-24T05:57:02.457Z,50
2016-05-24T05:58:02.288Z,45
2016-05-24T05:59:02.431Z,40
2016-05-24T06:00:03.215Z,50
2016-05-24T06:01:02.234Z,45
2016-05-24T06:02:02.064Z,45
2016-05-24T06:03:02.364Z,40
2016-05-24T06:04:02.194Z,35
2016-05-24T06:05:02.182Z,40
2016-05-24T06:06:02.168Z,40
2016-05-24T06:07:02.296Z,40
2016-05-24T06:08:02.158Z,35
2016-05-24T06:09:02.270Z,35
2016-05-24T06:10:01.960Z,35
2016-05-24T06:11:02.181Z,35
2016-05-24T06:12:02.217Z,40
2016-05-24T06:13:04.797Z,55
2016-05-24T06:14:06.252Z,45
2016-05-24T06:15:02.037Z,40
2016-05-24T06:16:06.133Z,50
2016-05-24T06:17:05.322Z,55
2016-05-24T06:18:02.325Z,65
2016-05-24T06:19:01.969Z,55
2016-05-24T06:20:01.956Z,50
2016-05-24T06:21:02.100Z,50
2016-05-24T06:22:02.086Z,50
2016-05-24T06:23:02.074Z,55
2016-05-24T06:24:02.076Z,50
2016-05-24T06:25:02.032Z,50
2016-05-24T06:26:01.863Z,50
2016-05-24T06:27:01.850Z,50
2016-05-24T06:28:01.821Z,50
2016-05-24T06:29:01.980Z,50
2016-05-24T06:30:01.827Z,50
2016-05-24T06:31:01.954Z,45
2016-05-24T06:32:01.926Z,50
2016-05-24T06:33:01.445Z,55
2016-05-24T06:34:01.901Z,55
2016-05-24T06:35:01.903Z,60
2016-05-24T06:36:01.718Z,70
2016-05-24T06:37:01.846Z,75
2016-05-24T06:38:01.676Z,75
2016-05-24T06:39:01.664Z,75
2016-05-24T06:40:01.651Z,85
2016-05-24T06:41:01.638Z,70
2016-05-24T06:42:01.625Z,65
2016-05-24T06:43:01.752Z,65
2016-05-24T06:44:01.755Z,75
2016-05-24T06:45:02.023Z,70
2016-05-24T06:46:01.730Z,70
2016-05-24T06:47:01.701Z,75
2016-05-24T06:48:01.703Z,80
2016-05-24T06:49:01.519Z,80
2016-05-24T06:50:01.662Z,80
2016-05-24T06:51:01.494Z,80
2016-05-24T06:52:01.636Z,80
2016-05-24T06:53:01.608Z,80
2016-05-24T06:54:01.657Z,85
2016-05-24T06:55:01.613Z,85
2016-05-24T06:56:01.428Z,85
2016-05-24T06:57:01.430Z,90
2016-05-24T06:58:02.230Z,90
2016-05-24T06:59:01.530Z,90
2016-05-24T07:00:02.502Z,95
2016-05-24T07:01:01.505Z,90
2016-05-24T07:02:01.554Z,95
2016-05-24T07:03:01.479Z,110
2016-05-24T07:04:01.528Z,110
2016-05-24T07:05:01.296Z,110
2016-05-24T07:06:01.455Z,105
2016-05-24T07:07:01.411Z,105
2016-05-24T07:08:01.257Z,115
2016-05-24T07:09:01.370Z,125
2016-05-24T07:10:01.373Z,120
2016-05-24T07:11:01.203Z,115
2016-05-24T07:12:01.362Z,115
2016-05-24T07:13:01.318Z,110
2016-05-24T07:14:01.306Z,105
2016-05-24T07:15:01.464Z,95
2016-05-24T07:16:00.981Z,95
2016-05-24T07:17:01.281Z,100
2016-05-24T07:18:01.316Z,95
2016-05-24T07:19:01.099Z,100
2016-05-24T07:20:01.071Z,100
2016-05-24T07:21:01.324Z,110
2016-05-24T07:22:01.202Z,110
2016-05-24T07:23:01.204Z,110
2016-05-24T07:24:01.082Z,105
2016-05-24T07:25:00.881Z,100
2016-05-24T07:26:01.134Z,90
2016-05-24T07:27:01.121Z,95
2016-05-24T07:28:01.108Z,95
2016-05-24T07:29:01.267Z,115
2016-05-24T07:30:01.004Z,120
2016-05-24T07:31:01.022Z,110
2016-05-24T07:32:00.743Z,120
2016-05-24T07:33:00.731Z,125
2016-05-24T07:34:01.015Z,115
2016-05-24T07:35:01.033Z,115
2016-05-24T07:36:00.910Z,135
2016-05-24T07:37:00.976Z,120
2016-05-24T07:38:01.026Z,130
2016-05-24T07:39:01.044Z,125
2016-05-24T07:40:00.937Z,120
2016-05-24T07:41:00.924Z,135
2016-05-24T07:42:00.739Z,140
2016-05-24T07:43:00.883Z,115
2016-05-24T07:44:00.886Z,105
2016-05-24T07:45:01.981Z,110
2016-05-24T07:46:01.548Z,120
2016-05-24T07:47:00.675Z,110
2016-05-24T07:48:00.911Z,110
2016-05-24T07:49:00.634Z,100
2016-05-24T07:50:00.823Z,95
2016-05-24T07:51:00.623Z,95
2016-05-24T07:52:00.876Z,90
2016-05-24T07:53:00.800Z,105
2016-05-24T07:54:00.584Z,110
2016-05-24T07:55:00.555Z,110
2016-05-24T07:56:00.730Z,115
2016-05-24T07:57:00.561Z,120
2016-05-24T07:58:00.392Z,115
2016-05-24T07:59:00.660Z,130
2016-05-24T08:00:01.022Z,140
2016-05-24T08:01:00.493Z,115
2016-05-24T08:02:00.715Z,115
2016-05-24T08:03:00.593Z,115
2016-05-24T08:04:00.736Z,115
2016-05-24T08:05:00.443Z,120
2016-05-24T08:06:00.413Z,120
2016-05-24T08:07:00.385Z,120
2016-05-24T08:08:00.746Z,115
2016-05-24T08:09:00.546Z,120
2016-05-24T08:10:00.518Z,125
2016-05-24T08:11:00.334Z,130
2016-05-24T08:12:00.570Z,140
2016-05-24T08:13:00.526Z,145
2016-05-24T08:14:00.482Z,135
2016-05-24T08:15:00.484Z,125
2016-05-24T08:16:00.456Z,140
2016-05-24T08:17:00.490Z,140
2016-05-24T08:18:00.399Z,120
2016-05-24T08:19:00.370Z,110
2016-05-24T08:20:00.357Z,115
2016-05-24T08:21:00.469Z,105
2016-05-24T08:22:00.239Z,130
2016-05-24T08:23:00.178Z,135
2016-05-24T08:23:59.790Z,130
2016-05-24T08:25:00.340Z,110
2016-05-24T08:26:00.295Z,130
2016-05-24T08:27:00.282Z,155
2016-05-24T08:28:00.254Z,160
2016-05-24T08:29:00.116Z,155
2016-05-24T08:30:00.291Z,140
2016-05-24T08:31:00.355Z,125
2016-05-24T08:32:00.280Z,115
2016-05-24T08:33:00.049Z,105
2016-05-24T08:34:00.207Z,100
2016-05-24T08:34:59.882Z,110
2016-05-24T08:35:59.994Z,130
2016-05-24T08:37:00.232Z,120
2016-05-24T08:38:00.124Z,105
2016-05-24T08:39:00.018Z,100
2016-05-24T08:39:59.942Z,95
2016-05-24T08:41:00.070Z,110
2016-05-24T08:42:00.057Z,110
2016-05-24T08:42:59.888Z,105
2016-05-24T08:43:59.876Z,100
2016-05-24T08:45:00.018Z,95
2016-05-24T08:46:00.678Z,90
2016-05-24T08:46:59.992Z,105
2016-05-24T08:47:59.823Z,110
2016-05-24T08:48:59.966Z,110
2016-05-24T08:50:00.047Z,115
2016-05-24T08:51:00.035Z,120
2016-05-24T08:51:59.928Z,110
2016-05-24T08:52:59.930Z,110
2016-05-24T08:53:59.902Z,120
2016-05-24T08:54:59.748Z,135
2016-05-24T08:55:59.813Z,140
2016-05-24T08:56:59.879Z,135
2016-05-24T08:57:59.850Z,150
2016-05-24T08:58:59.931Z,150
2016-05-24T09:00:00.215Z,135
2016-05-24T09:01:00.733Z,130
2016-05-24T09:01:59.861Z,150
2016-05-24T09:02:59.769Z,155
2016-05-24T09:03:59.758Z,150
2016-05-24T09:04:59.635Z,125
2016-05-24T09:05:59.731Z,125
2016-05-24T09:06:59.562Z,130
2016-05-24T09:07:59.721Z,130
2016-05-24T09:08:59.677Z,130
2016-05-24T09:09:59.757Z,125
2016-05-24T09:10:59.354Z,125
2016-05-24T09:11:59.591Z,125
2016-05-24T09:12:59.735Z,145
2016-05-24T09:13:59.299Z,125
2016-05-24T09:14:59.459Z,120
2016-05-24T09:15:59.649Z,120
2016-05-24T09:16:59.573Z,115
2016-05-24T09:17:59.404Z,115
2016-05-24T09:18:59.609Z,110
2016-05-24T09:19:59.534Z,105
2016-05-24T09:21:01.740Z,100
2016-05-24T09:21:59.509Z,95
2016-05-24T09:22:59.355Z,100
2016-05-24T09:23:59.483Z,105
2016-05-24T09:24:59.751Z,105
2016-05-24T09:25:59.161Z,110
2016-05-24T09:26:59.459Z,115
2016-05-24T09:27:59.430Z,105
2016-05-24T09:28:59.450Z,90
2016-05-24T09:29:59.624Z,95
2016-05-24T09:30:59.095Z,110
2016-05-24T09:31:59.505Z,120
2016-05-24T09:32:59.382Z,135
2016-05-24T09:33:59.478Z,145
2016-05-24T09:34:59.341Z,150
2016-05-24T09:35:59.343Z,145
2016-05-24T09:36:59.329Z,145
2016-05-24T09:37:59.239Z,155
2016-05-24T09:38:59.335Z,150
2016-05-24T09:39:59.276Z,155
2016-05-24T09:41:00.701Z,135
2016-05-24T09:41:59.281Z,125
2016-05-24T09:42:59.299Z,120
2016-05-24T09:43:59.224Z,115
2016-05-24T09:44:59.632Z,115
2016-05-24T09:45:59.073Z,130
2016-05-24T09:46:59.122Z,135
2016-05-24T09:47:59.251Z,135
2016-05-24T09:48:58.879Z,125
2016-05-24T09:49:58.974Z,125
2016-05-24T09:51:01.228Z,120
2016-05-24T09:51:58.995Z,115
2016-05-24T09:52:58.920Z,115
2016-05-24T09:53:58.907Z,125
2016-05-24T09:54:59.238Z,120
2016-05-24T09:55:58.991Z,125
2016-05-24T09:56:59.134Z,140
2016-05-24T09:57:59.089Z,150
2016-05-24T09:58:58.858Z,180
2016-05-24T09:59:59.017Z,190
2016-05-24T10:00:58.989Z,165
2016-05-24T10:01:59.053Z,150
2016-05-24T10:02:58.947Z,140
2016-05-24T10:03:58.872Z,140
2016-05-24T10:04:58.921Z,130
2016-05-24T10:05:58.829Z,120
2016-05-24T10:06:58.893Z,115
2016-05-24T10:07:58.980Z,110
2016-05-24T10:08:58.770Z,110
2016-05-24T10:09:58.951Z,115
2016-05-24T10:10:58.820Z,120
2016-05-24T10:11:58.788Z,125
2016-05-24T10:12:58.940Z,130
2016-05-24T10:13:58.935Z,135
2016-05-24T10:14:59.430Z,145
2016-05-24T10:15:59.035Z,150
2016-05-24T10:16:58.761Z,155
2016-05-24T10:17:58.751Z,150
2016-05-24T10:18:58.881Z,140
2016-05-24T10:19:58.871Z,140
2016-05-24T10:21:00.814Z,145
2016-05-24T10:21:58.850Z,135
2016-05-24T10:22:58.838Z,140
2016-05-24T10:23:58.889Z,140
2016-05-24T10:24:58.829Z,140
2016-05-24T10:26:04.193Z,145
2016-05-24T10:26:58.634Z,150
2016-05-24T10:27:58.809Z,150
2016-05-24T10:28:58.750Z,155
2016-05-24T10:29:58.768Z,155
2016-05-24T10:30:59.381Z,145
2016-05-24T10:31:59.649Z,145
2016-05-24T10:32:58.730Z,150
2016-05-24T10:33:58.685Z,140
2016-05-24T10:34:58.548Z,140
2016-05-24T10:35:58.675Z,140
2016-05-24T10:37:00.600Z,140
2016-05-24T10:37:58.650Z,145
2016-05-24T10:38:58.653Z,150
2016-05-24T10:39:58.530Z,160
2016-05-24T10:40:58.595Z,165
2016-05-24T10:42:00.567Z,175
2016-05-24T10:42:58.428Z,180
2016-05-24T10:43:58.259Z,185
2016-05-24T10:44:58.262Z,190
2016-05-24T10:45:58.389Z,210
2016-05-24T10:46:58.533Z,225
2016-05-24T10:47:58.208Z,225
2016-05-24T10:48:58.492Z,235
2016-05-24T10:49:58.478Z,260
2016-05-24T10:50:58.310Z,245
2016-05-24T10:51:59.891Z,195
2016-05-24T10:52:58.127Z,180
2016-05-24T10:53:58.271Z,160
2016-05-24T10:54:58.429Z,150
2016-05-24T10:55:58.260Z,145
2016-05-24T10:57:00.263Z,140
2016-05-24T10:57:58.469Z,145
2016-05-24T10:58:58.362Z,140
2016-05-24T10:59:58.552Z,145
2016-05-24T11:00:58.757Z,165
2016-05-24T11:02:00.027Z,180
2016-05-24T11:02:58.342Z,160
2016-05-24T11:03:58.298Z,160
2016-05-24T11:04:58.129Z,165
2016-05-24T11:05:58.318Z,180
2016-05-24T11:06:58.399Z,190
2016-05-24T11:07:58.293Z,195
2016-05-24T11:08:57.920Z,185
2016-05-24T11:09:58.204Z,175
2016-05-24T11:10:58.051Z,170
2016-05-24T11:11:59.506Z,155
2016-05-24T11:12:58.181Z,150
2016-05-24T11:13:57.980Z,140
2016-05-24T11:14:58.140Z,140
2016-05-24T11:15:58.002Z,130
2016-05-24T11:16:59.300Z,120
2016-05-24T11:17:58.117Z,110
2016-05-24T11:18:57.869Z,110
2016-05-24T11:19:57.919Z,110
2016-05-24T11:20:58.078Z,120
2016-05-24T11:21:58.658Z,125
2016-05-24T11:22:58.052Z,135
2016-05-24T11:23:58.102Z,145
2016-05-24T11:24:58.104Z,140
2016-05-24T11:25:58.060Z,140
2016-05-24T11:26:58.000Z,140
2016-05-24T11:27:57.987Z,140
2016-05-24T11:28:57.849Z,145
2016-05-24T11:29:57.836Z,150
2016-05-24T11:30:58.402Z,160
2016-05-24T11:31:57.998Z,160
2016-05-24T11:32:58.110Z,175
2016-05-24T11:33:57.832Z,170
2016-05-24T11:34:57.913Z,135
2016-05-24T11:35:57.884Z,125
2016-05-24T11:36:57.854Z,135
2016-05-24T11:37:57.857Z,155
2016-05-24T11:38:57.673Z,170
2016-05-24T11:39:57.613Z,145
2016-05-24T11:40:57.350Z,160
2016-05-24T11:41:57.712Z,185
2016-05-24T11:42:57.731Z,205
2016-05-24T11:43:57.623Z,215
2016-05-24T11:44:57.814Z,250
2016-05-24T11:45:57.613Z,265
2016-05-24T11:46:57.866Z,265
2016-05-24T11:47:57.744Z,255
2016-05-24T11:48:57.731Z,250
2016-05-24T11:49:57.703Z,250
2016-05-24T11:50:57.550Z,275
2016-05-24T11:51:57.582Z,305
2016-05-24T11:52:57.586Z,345
2016-05-24T11:53:57.355Z,455
2016-05-24T11:54:57.466Z,955
2016-05-24T11:55:57.641Z,660
2016-05-24T11:56:57.783Z,410
2016-05-24T11:57:57.615Z,355
2016-05-24T11:58:57.664Z,370
2016-05-24T11:59:57.120Z,385
2016-05-24T12:00:58.935Z,385
2016-05-24T12:01:57.579Z,340
2016-05-24T12:02:57.565Z,285
2016-05-24T12:03:57.224Z,250
2016-05-24T12:04:57.524Z,270
2016-05-24T12:05:57.496Z,260
2016-05-24T12:06:57.498Z,280
2016-05-24T12:07:57.376Z,300
2016-05-24T12:08:57.207Z,370
2016-05-24T12:09:57.460Z,440
2016-05-24T12:10:57.134Z,520
2016-05-24T12:11:57.434Z,470
2016-05-24T12:12:57.342Z,355
2016-05-24T12:13:57.392Z,305
2016-05-24T12:14:57.254Z,290
2016-05-24T12:15:57.850Z,190
2016-05-24T12:16:57.447Z,175
2016-05-24T12:17:57.169Z,180
2016-05-24T12:18:57.234Z,190
2016-05-24T12:19:57.361Z,205
2016-05-24T12:20:57.332Z,245
2016-05-24T12:21:57.226Z,280
2016-05-24T12:22:57.166Z,230
2016-05-24T12:23:57.169Z,215
2016-05-24T12:24:57.296Z,210
2016-05-24T12:25:57.300Z,205
2016-05-24T12:26:57.271Z,200
2016-05-24T12:27:57.257Z,230
2016-05-24T12:28:57.260Z,275
2016-05-24T12:29:57.091Z,255
2016-05-24T12:30:57.516Z,270
2016-05-24T12:31:57.066Z,315
2016-05-24T12:32:57.287Z,315
2016-05-24T12:33:57.040Z,305
2016-05-24T12:34:57.027Z,315
2016-05-24T12:35:56.858Z,340
2016-05-24T12:36:57.110Z,350
2016-05-24T12:37:57.160Z,345
2016-05-24T12:38:57.225Z,305
2016-05-24T12:39:57.118Z,240
2016-05-24T12:40:57.121Z,260
2016-05-24T12:41:57.123Z,255
2016-05-24T12:42:57.189Z,240
2016-05-24T12:43:57.097Z,240
2016-05-24T12:44:58.662Z,245
2016-05-24T12:45:56.932Z,225
2016-05-24T12:46:56.903Z,225
2016-05-24T12:47:57.124Z,225
2016-05-24T12:48:56.720Z,275
2016-05-24T12:49:57.067Z,240
2016-05-24T12:50:57.023Z,220
2016-05-24T12:51:57.198Z,195
2016-05-24T12:52:56.981Z,205
2016-05-24T12:53:56.812Z,215
2016-05-24T12:54:57.425Z,235
2016-05-24T12:55:56.958Z,235
2016-05-24T12:56:56.992Z,225
2016-05-24T12:57:56.963Z,200
2016-05-24T12:58:56.950Z,160
2016-05-24T12:59:57.641Z,185
2016-05-24T13:00:56.909Z,200
2016-05-24T13:01:56.724Z,170
2016-05-24T13:02:57.024Z,135
2016-05-24T13:03:56.917Z,130
2016-05-24T13:04:56.888Z,135
2016-05-24T13:05:56.860Z,150
2016-05-24T13:06:56.644Z,180
2016-05-24T13:07:56.693Z,230
2016-05-24T13:08:56.743Z,255
2016-05-24T13:09:56.901Z,280
2016-05-24T13:10:56.640Z,235
2016-05-24T13:11:56.892Z,220
2016-05-24T13:12:56.613Z,185
2016-05-24T13:13:56.851Z,175
2016-05-24T13:14:57.181Z,175
2016-05-24T13:15:57.231Z,175
2016-05-24T13:16:56.577Z,195
2016-05-24T13:17:56.705Z,220
2016-05-24T13:18:56.583Z,260
2016-05-24T13:19:56.507Z,285
2016-05-24T13:20:56.541Z,300
2016-05-24T13:21:56.184Z,270
2016-05-24T13:22:56.374Z,230
2016-05-24T13:23:56.486Z,155
2016-05-24T13:24:56.458Z,120
2016-05-24T13:25:56.507Z,110
2016-05-24T13:26:56.620Z,105
2016-05-24T13:27:56.670Z,85
2016-05-24T13:28:56.453Z,75
2016-05-24T13:29:56.550Z,70
2016-05-24T13:30:57.474Z,70
2016-05-24T13:31:56.414Z,80
2016-05-24T13:32:56.527Z,85
2016-05-24T13:33:56.357Z,95
2016-05-24T13:34:56.532Z,105
2016-05-24T13:35:56.347Z,110
2016-05-24T13:36:56.506Z,120
2016-05-24T13:37:56.337Z,125
2016-05-24T13:38:56.465Z,150
2016-05-24T13:39:56.326Z,180
2016-05-24T13:40:56.298Z,205
2016-05-24T13:41:56.098Z,225
2016-05-24T13:42:56.256Z,265
2016-05-24T13:43:56.400Z,275
2016-05-24T13:44:56.323Z,285
2016-05-24T13:45:56.217Z,260
2016-05-24T13:46:56.252Z,245
2016-05-24T13:47:56.348Z,210
2016-05-24T13:48:56.178Z,180
2016-05-24T13:49:56.087Z,170
2016-05-24T13:50:56.387Z,145
2016-05-24T13:51:56.311Z,145
2016-05-24T13:52:56.174Z,145
2016-05-24T13:53:56.286Z,150
2016-05-24T13:54:56.258Z,150
2016-05-24T13:55:56.244Z,145
2016-05-24T13:56:56.091Z,140
2016-05-24T13:57:56.233Z,120
2016-05-24T13:58:56.065Z,130
2016-05-24T13:59:56.208Z,145
2016-05-24T14:00:56.352Z,150
2016-05-24T14:01:56.167Z,130
2016-05-24T14:02:56.138Z,110
2016-05-24T14:03:55.984Z,95
2016-05-24T14:04:56.160Z,75
2016-05-24T14:05:56.131Z,55
2016-05-24T14:06:56.102Z,55
2016-05-24T14:07:56.105Z,55
2016-05-24T14:08:56.263Z,65
2016-05-24T14:09:56.032Z,75